Time;durP1;ratioP1;P1;durP2;ratioP2;P2;SDS_P1;SDS_P2;PMS_P1;PMS_P2;Temp;Humidity;BMP_temperature;BMP_pressure;BME280_temperature;BME280_humidity;BME280_pressure;Samples;Min_cycle;Max_cycle;Signal;HPM_P1;HPM_P2
2022/07/21 00:00:03;;;;;;;28.20;17.45;;;20.50;99.90;;;;;;6044489;23;20293;-81
2022/07/21 00:02:29;;;;;;;29.35;18.35;;;20.50;99.90;;;;;;6044375;23;20007;-80
2022/07/21 00:04:54;;;;;;;29.02;18.63;;;20.40;99.90;;;;;;6044859;23;20053;-80
2022/07/21 00:07:20;;;;;;;28.83;18.05;;;20.40;99.90;;;;;;6044924;23;20068;-80
2022/07/21 00:09:46;;;;;;;25.73;17.67;;;20.30;99.90;;;;;;6044242;23;20310;-78
2022/07/21 00:12:12;;;;;;;29.17;17.55;;;20.30;99.90;;;;;;6020897;23;20037;-80
2022/07/21 00:14:38;;;;;;;30.58;19.25;;;20.20;99.90;;;;;;6068245;23;20429;-77
2022/07/21 00:17:03;;;;;;;28.85;17.73;;;20.10;99.90;;;;;;6026005;23;20015;-79
2022/07/21 00:19:31;;;;;;;24.67;16.65;;;20.10;99.90;;;;;;6026905;23;20041;-78
2022/07/21 00:21:57;;;;;;;27.92;19.08;;;20.10;99.90;;;;;;6021798;23;20011;-78
2022/07/21 00:24:23;;;;;;;25.15;19.40;;;20.10;99.90;;;;;;6045089;23;20026;-78
2022/07/21 00:26:49;;;;;;;33.40;20.80;;;20.00;99.90;;;;;;6068472;23;20078;-79
2022/07/21 00:29:14;;;;;;;36.30;20.52;;;19.90;99.90;;;;;;6020815;23;20093;-81
2022/07/21 00:31:40;;;;;;;30.55;22.13;;;19.90;99.90;;;;;;6020486;23;20014;-80
2022/07/21 00:34:06;;;;;;;38.03;21.95;;;20.00;99.90;;;;;;6020679;23;20085;-80
2022/07/21 00:36:32;;;;;;;31.75;21.73;;;20.00;99.90;;;;;;6068409;23;20059;-77
2022/07/21 00:38:57;;;;;;;36.55;22.33;;;20.00;99.90;;;;;;6044073;23;20018;-79
2022/07/21 00:41:24;;;;;;;32.40;23.38;;;20.00;99.90;;;;;;6068290;23;20006;-80
2022/07/21 00:43:49;;;;;;;;;;;19.90;99.90;;;;;;6021226;23;20014;-79
2022/07/21 00:46:15;;;;;;;37.03;24.42;;;19.80;99.90;;;;;;6044068;23;19921;-76
2022/07/21 00:48:41;;;;;;;40.30;27.25;;;19.70;99.90;;;;;;6091945;23;20015;-79
2022/07/21 00:51:06;;;;;;;36.53;25.10;;;19.70;99.90;;;;;;6020516;23;20015;-77
2022/07/21 00:53:32;;;;;;;39.63;26.67;;;19.60;99.90;;;;;;6020217;23;20334;-77
2022/07/21 00:55:59;;;;;;;39.65;27.15;;;19.70;99.90;;;;;;6067987;23;20147;-76
2022/07/21 00:58:25;;;;;;;43.72;29.38;;;19.80;99.90;;;;;;6020311;23;20090;-77
2022/07/21 01:00:51;;;;;;;41.90;28.40;;;19.70;99.90;;;;;;6067954;23;20042;-77
2022/07/21 01:03:17;;;;;;;45.72;30.00;;;19.70;99.90;;;;;;6043850;23;20011;-76
2022/07/21 01:05:43;;;;;;;46.58;30.48;;;19.70;99.90;;;;;;6020283;23;20070;-80
2022/07/21 01:08:10;;;;;;;42.15;27.88;;;19.70;99.90;;;;;;6020498;23;20441;-76
2022/07/21 01:10:35;;;;;;;41.70;30.27;;;19.80;99.90;;;;;;6043857;23;20026;-79
2022/07/21 01:13:01;;;;;;;38.30;26.77;;;19.80;99.90;;;;;;6044216;23;20011;-80
2022/07/21 01:15:27;;;;;;;45.50;31.60;;;19.80;99.90;;;;;;6044213;23;20052;-77
2022/07/21 01:17:53;;;;;;;49.00;30.65;;;19.70;99.90;;;;;;6020349;23;20007;-79
2022/07/21 01:20:21;;;;;;;44.40;29.30;;;19.80;99.90;;;;;;6020452;23;20046;-77
2022/07/21 01:22:50;;;;;;;50.83;30.25;;;19.80;99.90;;;;;;6015189;23;20059;-77
2022/07/21 01:25:18;;;;;;;44.00;30.65;;;19.80;99.90;;;;;;6014907;23;20319;-76
2022/07/21 01:27:44;;;;;;;42.67;29.02;;;19.90;99.90;;;;;;6015767;23;20086;-76
2022/07/21 01:30:10;;;;;;;43.05;28.73;;;19.90;99.90;;;;;;6015182;23;20049;-79
2022/07/21 01:32:38;;;;;;;51.17;31.73;;;19.90;99.90;;;;;;6015075;23;20425;-79
2022/07/21 01:35:06;;;;;;;40.90;27.23;;;19.90;99.90;;;;;;6015103;23;20025;-79
2022/07/21 01:37:36;;;;;;;40.75;27.80;;;19.80;99.90;;;;;;6038780;23;20426;-78
2022/07/21 01:42:47;;;;;;;43.03;27.75;;;19.80;99.90;;;;;;6018993;23;20426;-78
2022/07/21 01:45:12;;;;;;;40.97;27.27;;;19.80;99.90;;;;;;6038737;23;20018;-79
2022/07/21 01:47:40;;;;;;;43.28;27.38;;;19.80;99.90;;;;;;6038902;23;20066;-78
2022/07/21 01:50:06;;;;;;;43.97;27.27;;;19.70;99.90;;;;;;6038860;23;20071;-78
2022/07/21 01:52:32;;;;;;;;;;;19.70;99.90;;;;;;6039649;23;20448;-79
2022/07/21 01:54:57;;;;;;;43.75;27.08;;;19.70;99.90;;;;;;6039158;23;19910;-78
2022/07/21 01:57:23;;;;;;;41.72;26.17;;;19.70;99.90;;;;;;6038603;23;20121;-79
2022/07/21 01:59:52;;;;;;;39.63;24.08;;;19.60;99.90;;;;;;6043783;23;20007;-79
2022/07/21 02:02:20;;;;;;;50.17;30.13;;;19.60;99.90;;;;;;6044156;23;20044;-77
2022/07/21 02:04:50;;;;;;;50.70;32.25;;;19.50;99.90;;;;;;6017074;23;20011;-77
2022/07/21 02:07:16;;;;;;;50.45;32.35;;;19.50;99.90;;;;;;6038582;23;20019;-79
2022/07/21 02:09:42;;;;;;;;;;;19.40;99.90;;;;;;6039084;23;20011;-79
2022/07/21 02:12:08;;;;;;;48.55;30.42;;;19.40;99.90;;;;;;6038795;23;19984;-78
2022/07/21 02:14:36;;;;;;;49.17;33.20;;;19.50;99.90;;;;;;6014784;23;20046;-80
2022/07/21 02:17:02;;;;;;;50.10;33.28;;;19.50;99.90;;;;;;6015244;23;20307;-77
2022/07/21 02:19:28;;;;;;;55.88;35.38;;;19.50;99.90;;;;;;6039029;23;20069;-80
2022/07/21 02:21:54;;;;;;;54.97;34.63;;;19.60;99.90;;;;;;6038754;23;20066;-78
2022/07/21 02:24:22;;;;;;;50.33;32.67;;;19.50;99.90;;;;;;6014663;23;20019;-80
2022/07/21 02:26:48;;;;;;;47.28;33.15;;;19.50;99.90;;;;;;6038130;23;20022;-82
2022/07/21 02:29:14;;;;;;;64.30;39.20;;;19.40;99.90;;;;;;5990997;23;20090;-81
2022/07/21 02:31:39;;;;;;;60.08;38.30;;;19.40;99.90;;;;;;5991560;23;20066;-81
2022/07/21 02:34:06;;;;;;;50.53;32.85;;;19.40;99.90;;;;;;5991133;23;20138;-79
2022/07/21 02:36:32;;;;;;;63.25;35.88;;;19.40;99.90;;;;;;6014692;23;20437;-80
2022/07/21 02:38:58;;;;;;;56.55;35.13;;;19.40;99.90;;;;;;5991618;23;20012;-80
2022/07/21 02:41:24;;;;;;;52.42;31.80;;;19.40;99.90;;;;;;5991554;23;20011;-84
2022/07/21 02:43:50;;;;;;;44.90;27.40;;;19.30;99.90;;;;;;6038721;23;20322;-78
2022/07/21 02:46:15;;;;;;;40.83;29.10;;;19.40;99.90;;;;;;5991120;23;20452;-79
2022/07/21 02:48:41;;;;;;;48.60;27.88;;;19.30;99.90;;;;;;5991756;23;20026;-80
2022/07/21 02:51:07;;;;;;;54.17;29.45;;;19.30;99.90;;;;;;6038549;23;20011;-79
2022/07/21 02:53:33;;;;;;;47.58;29.38;;;19.30;99.90;;;;;;6038677;23;20011;-79
2022/07/21 02:55:58;;;;;;;40.38;26.52;;;19.40;99.90;;;;;;5991446;23;20095;-80
2022/07/21 02:58:27;;;;;;;47.22;29.00;;;19.30;99.90;;;;;;6037924;23;20022;-79
2022/07/21 03:00:55;;;;;;;51.28;32.17;;;19.40;99.90;;;;;;6014834;23;20432;-81
2022/07/21 03:03:22;;;;;;;42.83;28.77;;;19.40;99.90;;;;;;6038505;23;20011;-79
2022/07/21 03:05:49;;;;;;;47.28;30.50;;;19.40;99.90;;;;;;6014705;23;20057;-79
2022/07/21 03:08:16;;;;;;;41.28;27.48;;;19.50;99.90;;;;;;5990919;23;20586;-79
2022/07/21 03:10:42;;;;;;;48.85;28.90;;;19.50;99.90;;;;;;5991129;23;20147;-78
2022/07/21 03:13:08;;;;;;;42.35;28.52;;;19.50;99.90;;;;;;6014806;23;20063;-82
2022/07/21 03:15:34;;;;;;;;;;;19.50;99.90;;;;;;5992439;23;20030;-79
2022/07/21 03:18:00;;;;;;;40.80;25.50;;;19.60;99.90;;;;;;6014465;23;20309;-79
2022/07/21 03:20:28;;;;;;;40.30;26.40;;;19.60;99.90;;;;;;6014366;23;20013;-80
2022/07/21 03:22:54;;;;;;;43.17;28.00;;;19.60;99.90;;;;;;5995997;23;20321;-81
2022/07/21 03:25:20;;;;;;;43.55;28.88;;;19.60;99.90;;;;;;6038174;23;20015;-80
2022/07/21 03:27:47;;;;;;;43.45;29.08;;;19.50;99.90;;;;;;6038706;23;20082;-80
2022/07/21 03:30:14;;;;;;;41.35;27.20;;;19.60;99.90;;;;;;6014556;23;20079;-81
2022/07/21 03:32:40;;;;;;;47.38;29.60;;;19.60;99.90;;;;;;6014752;23;20008;-79
2022/07/21 03:35:10;;;;;;;43.55;29.02;;;19.50;99.90;;;;;;6014503;23;20007;-79
2022/07/21 03:37:44;;;;;;;46.90;28.60;;;19.50;99.90;;;;;;6038208;23;20094;-82
2022/07/21 03:40:16;;;;;;;37.70;25.35;;;19.60;99.90;;;;;;6014941;23;20012;-81
2022/07/21 03:42:41;;;;;;;47.03;28.30;;;19.60;99.90;;;;;;6015597;23;20039;-78
2022/07/21 03:45:08;;;;;;;49.42;30.67;;;19.50;99.90;;;;;;6045235;23;20015;-80
2022/07/21 03:47:34;;;;;;;46.60;26.85;;;19.50;99.90;;;;;;6022323;23;20043;-79
2022/07/21 03:50:00;;;;;;;34.67;23.42;;;19.50;99.90;;;;;;6041691;23;20015;-82
2022/07/21 03:52:26;;;;;;;44.28;27.30;;;19.50;99.90;;;;;;6040202;23;20018;-79
2022/07/21 03:55:07;;;;;;;;;;;19.50;99.90;;;;;;6016495;23;20054;-79
2022/07/21 03:57:42;;;;;;;42.92;26.77;;;19.50;99.90;;;;;;6039842;23;19913;-81
2022/07/21 04:00:12;;;;;;;44.67;27.15;;;19.50;99.90;;;;;;6016719;23;20019;-81
2022/07/21 04:02:38;;;;;;;46.90;29.33;;;19.50;99.90;;;;;;6016382;23;20013;-82
2022/07/21 04:05:04;;;;;;;43.30;26.77;;;19.50;99.90;;;;;;6016083;23;20022;-83
2022/07/21 04:07:30;;;;;;;39.90;24.92;;;19.50;99.90;;;;;;6016438;23;20022;-80
2022/07/21 04:09:56;;;;;;;42.35;27.73;;;19.50;99.90;;;;;;6016328;23;20012;-80
2022/07/21 04:12:28;;;;;;;43.38;25.63;;;19.50;99.90;;;;;;6016149;23;20075;-80
2022/07/21 04:14:55;;;;;;;40.40;27.80;;;19.50;99.90;;;;;;6016632;23;20012;-81
2022/07/21 04:17:22;;;;;;;47.40;27.63;;;19.50;99.90;;;;;;6016404;23;20328;-79
2022/07/21 04:19:48;;;;;;;44.40;26.42;;;19.50;99.90;;;;;;6016192;23;20378;-81
2022/07/21 04:22:13;;;;;;;43.25;27.58;;;19.50;99.90;;;;;;6017955;23;20007;-79
2022/07/21 04:24:39;;;;;;;42.55;27.98;;;19.50;99.90;;;;;;6044320;23;20041;-82
2022/07/21 04:27:05;;;;;;;41.50;28.48;;;19.50;99.90;;;;;;6020663;23;20025;-80
2022/07/21 04:29:31;;;;;;;35.17;24.15;;;19.50;99.90;;;;;;6021028;23;20014;-81
2022/07/21 04:31:57;;;;;;;42.45;25.83;;;19.50;99.90;;;;;;6020880;23;20437;-80
2022/07/21 04:34:27;;;;;;;40.92;25.73;;;19.60;99.90;;;;;;6020511;23;20377;-80
2022/07/21 04:36:52;;;;;;;35.60;23.73;;;19.50;99.90;;;;;;6020437;23;20021;-84
2022/07/21 04:39:18;;;;;;;39.65;26.17;;;19.60;99.90;;;;;;6020913;23;20086;-80
2022/07/21 04:41:44;;;;;;;40.42;24.60;;;19.60;99.90;;;;;;6020778;23;20077;-81
2022/07/21 04:44:10;;;;;;;35.10;24.25;;;19.60;99.90;;;;;;6068215;23;20014;-80
2022/07/21 04:46:36;;;;;;;38.05;24.52;;;19.60;99.90;;;;;;6043625;23;20069;-80
2022/07/21 04:49:01;;;;;;;37.85;25.42;;;19.50;99.90;;;;;;6020361;23;20014;-82
2022/07/21 04:51:30;;;;;;;46.00;27.30;;;19.50;99.90;;;;;;6020169;23;20011;-81
2022/07/21 04:53:56;;;;;;;36.08;24.25;;;19.60;99.90;;;;;;6020257;23;20062;-81
2022/07/21 04:56:24;;;;;;;39.45;25.92;;;19.60;99.90;;;;;;6020901;23;20456;-81
2022/07/21 04:58:50;;;;;;;33.85;24.48;;;19.60;99.90;;;;;;6044228;23;20011;-82
2022/07/21 05:01:18;;;;;;;43.78;25.05;;;19.60;99.90;;;;;;6020126;23;20081;-80
2022/07/21 05:03:44;;;;;;;34.70;23.48;;;19.50;99.90;;;;;;6020533;23;20046;-79
2022/07/21 05:06:10;;;;;;;43.15;25.48;;;19.60;99.90;;;;;;6044354;23;20046;-84
2022/07/21 05:08:36;;;;;;;35.55;22.90;;;19.70;99.90;;;;;;6067810;23;20386;-80
2022/07/21 05:11:02;;;;;;;37.10;21.95;;;19.60;99.90;;;;;;6020444;23;20051;-81
2022/07/21 05:13:31;;;;;;;36.88;22.73;;;19.70;99.90;;;;;;6020281;23;20065;-80
2022/07/21 05:15:56;;;;;;;39.75;23.30;;;19.80;99.90;;;;;;6044065;23;20069;-79
2022/07/21 05:18:22;;;;;;;36.38;20.95;;;19.60;99.90;;;;;;6044326;23;20426;-80
2022/07/21 05:20:48;;;;;;;26.83;18.63;;;19.70;99.90;;;;;;6044081;23;20011;-80
2022/07/21 05:23:14;;;;;;;26.35;18.00;;;19.70;99.90;;;;;;6016035;23;20012;-81
2022/07/21 05:25:40;;;;;;;28.58;17.60;;;19.70;99.90;;;;;;6039122;23;20066;-82
2022/07/21 05:28:06;;;;;;;29.52;16.88;;;19.70;99.90;;;;;;6016322;23;20033;-83
2022/07/21 05:30:35;;;;;;;31.63;17.60;;;19.70;99.90;;;;;;6022075;23;20012;-80
2022/07/21 05:33:01;;;;;;;30.42;17.88;;;19.70;99.90;;;;;;6022668;23;20015;-79
2022/07/21 05:35:30;;;;;;;30.42;16.85;;;19.70;99.90;;;;;;6016315;23;20082;-81
2022/07/21 05:37:56;;;;;;;24.88;15.43;;;19.70;99.90;;;;;;6015568;23;20085;-82
2022/07/21 05:40:25;;;;;;;;;;;19.70;99.90;;;;;;6015929;23;20034;-78
2022/07/21 05:42:51;;;;;;;19.95;13.43;;;19.80;99.90;;;;;;6038206;23;20313;-80
2022/07/21 05:45:16;;;;;;;;;;;19.90;99.90;;;;;;6039638;23;20427;-80
2022/07/21 05:47:42;;;;;;;25.80;15.52;;;19.90;99.90;;;;;;6038975;23;19909;-79
2022/07/21 05:50:09;;;;;;;24.55;14.20;;;19.90;99.90;;;;;;6014992;23;20050;-81
2022/07/21 05:52:35;;;;;;;26.55;14.63;;;19.80;99.90;;;;;;6015444;23;20032;-80
2022/07/21 05:55:05;;;;;;;34.58;17.20;;;19.80;99.90;;;;;;6015086;23;20019;-79
2022/07/21 05:57:31;;;;;;;23.30;13.57;;;19.70;99.90;;;;;;6039038;23;20050;-80
2022/07/21 05:59:58;;;;;;;31.35;16.35;;;19.80;99.90;;;;;;6038929;23;20043;-79
2022/07/21 06:02:24;;;;;;;25.40;13.75;;;19.80;99.90;;;;;;6015580;23;20371;-79
2022/07/21 06:04:50;;;;;;;25.52;15.27;;;19.90;99.90;;;;;;6038966;23;20371;-82
2022/07/21 06:07:17;;;;;;;25.63;15.15;;;20.00;99.90;;;;;;6014951;23;20071;-81
2022/07/21 06:09:42;;;;;;;22.17;13.95;;;20.00;99.90;;;;;;6038297;23;20019;-81
2022/07/21 06:12:09;;;;;;;24.92;15.02;;;20.10;99.90;;;;;;6039040;23;20334;-80
2022/07/21 06:14:35;;;;;;;25.25;16.23;;;20.10;99.90;;;;;;6015075;23;20019;-81
2022/07/21 06:17:01;;;;;;;23.60;14.73;;;20.10;99.90;;;;;;6038968;23;20071;-80
2022/07/21 06:19:28;;;;;;;28.77;16.25;;;20.00;99.90;;;;;;6015455;23;20533;-81
2022/07/21 06:21:54;;;;;;;27.77;14.82;;;20.10;99.90;;;;;;6038419;23;20046;-83
2022/07/21 06:24:22;;;;;;;23.88;14.73;;;20.10;99.90;;;;;;6038425;23;20374;-80
2022/07/21 06:26:48;;;;;;;26.35;15.75;;;20.10;99.90;;;;;;6015152;23;20038;-80
2022/07/21 06:29:14;;;;;;;22.85;13.95;;;20.10;99.90;;;;;;6038428;23;20074;-78
2022/07/21 06:31:40;;;;;;;23.15;15.20;;;20.10;99.90;;;;;;6014408;23;20046;-82
2022/07/21 06:34:08;;;;;;;23.00;14.55;;;20.20;99.90;;;;;;6014916;23;20098;-82
2022/07/21 06:36:34;;;;;;;23.05;14.63;;;20.20;99.90;;;;;;6038805;23;20430;-79
2022/07/21 06:39:03;;;;;;;20.13;12.90;;;20.10;99.90;;;;;;6015852;23;20030;-81
2022/07/21 06:41:29;;;;;;;20.33;13.18;;;20.10;99.90;;;;;;6014747;23;20430;-79
2022/07/21 06:51:19;;;;;;;21.23;13.05;;;20.10;99.90;;;;;;6023945;23;20492;-71
2022/07/21 07:05:16;;;;;;;20.08;12.82;;;20.50;99.90;;;;;;5952625;24;20065;-68
2022/07/21 07:43:47;;;;;;;26.92;15.60;;;20.20;99.90;;;;;;5765910;24;20400;-74
2022/07/21 07:46:53;;;;;;;26.77;15.73;;;20.20;99.90;;;;;;5744327;24;20014;-73
2022/07/21 07:50:09;;;;;;;28.58;17.58;;;20.10;99.90;;;;;;5792519;24;20394;-72
2022/07/21 07:57:14;;;;;;;44.75;24.02;;;20.10;99.90;;;;;;5841324;24;20050;-73
2022/07/21 08:00:27;;;;;;;31.85;18.73;;;20.10;99.90;;;;;;5901402;23;20014;-73
2022/07/21 08:03:15;;;;;;;32.15;20.77;;;20.00;99.90;;;;;;6059253;23;20038;-73
2022/07/21 08:21:34;;;;;;;26.65;17.92;;;19.90;99.90;;;;;;5818408;24;20105;-73
2022/07/21 08:24:36;;;;;;;28.75;18.50;;;19.90;99.90;;;;;;5845186;24;20361;-73
2022/07/21 08:27:33;;;;;;;30.55;19.10;;;19.80;99.90;;;;;;5832431;24;20030;-74
2022/07/21 08:30:12;;;;;;;29.45;18.92;;;19.80;99.90;;;;;;5796335;24;20090;-73
2022/07/21 08:32:55;;;;;;;27.52;17.73;;;19.80;99.90;;;;;;5787556;24;20022;-72
2022/07/21 08:35:55;;;;;;;27.95;18.85;;;19.80;99.90;;;;;;6004732;23;20019;-73
2022/07/21 08:43:35;;;;;;;;;;;;;;;;;;;;;
2022/07/21 08:50:30;;;;;;;39.42;26.30;;;19.80;99.90;;;;;;5688939;25;20422;-74
2022/07/21 08:54:07;;;;;;;;;;;;;;;;;;;;;
2022/07/21 09:00:57;;;;;;;39.78;27.15;;;19.90;99.90;;;;;;5884679;24;20025;-74
2022/07/21 09:03:41;;;;;;;33.42;24.77;;;19.90;99.90;;;;;;5898802;24;20091;-74
2022/07/21 09:06:32;;;;;;;42.95;27.00;;;20.00;99.90;;;;;;5830308;24;20017;-74
2022/07/21 09:08:58;;;;;;;39.88;26.38;;;20.00;99.90;;;;;;5883732;24;20013;-74
2022/07/21 09:11:35;;;;;;;41.95;27.27;;;20.10;99.90;;;;;;5902476;24;20099;-73
2022/07/21 09:14:23;;;;;;;35.60;26.60;;;20.10;99.90;;;;;;5924504;24;20019;-74
2022/07/21 09:16:55;;;;;;;32.80;23.90;;;20.10;99.90;;;;;;5941622;24;20100;-74
2022/07/21 09:19:22;;;;;;;40.47;25.23;;;20.20;99.90;;;;;;5937394;23;20347;-73
2022/07/21 09:21:58;;;;;;;33.83;22.33;;;20.30;99.90;;;;;;6015065;23;20016;-73
2022/07/21 09:24:49;;;;;;;28.45;21.05;;;20.30;99.90;;;;;;6062839;23;20011;-73
2022/07/21 09:27:33;;;;;;;28.08;19.42;;;20.40;99.90;;;;;;6019861;23;20051;-72
2022/07/21 09:30:11;;;;;;;26.35;18.80;;;20.40;99.90;;;;;;6038433;23;20022;-73
2022/07/21 09:32:42;;;;;;;28.90;19.42;;;20.50;99.90;;;;;;6063274;23;20016;-73
2022/07/21 09:35:20;;;;;;;24.58;16.08;;;20.40;99.90;;;;;;6038225;23;20015;-72
2022/07/21 09:38:06;;;;;;;17.60;13.10;;;20.60;99.90;;;;;;6038683;23;20011;-73
2022/07/21 09:40:48;;;;;;;18.02;12.65;;;20.50;99.90;;;;;;6040309;23;20370;-73
2022/07/21 09:43:48;;;;;;;15.35;12.48;;;20.40;99.90;;;;;;6037436;23;20015;-73
2022/07/21 09:46:59;;;;;;;17.35;13.30;;;20.40;99.90;;;;;;6030316;23;20007;-72
2022/07/21 09:50:05;;;;;;;19.40;13.38;;;20.40;99.90;;;;;;6036465;23;20371;-72
2022/07/21 09:56:04;;;;;;;17.45;12.40;;;20.40;99.90;;;;;;6040115;23;20019;-72
2022/07/21 09:58:48;;;;;;;15.30;11.27;;;20.50;99.90;;;;;;6038582;23;20011;-73
2022/07/21 10:02:09;;;;;;;15.98;12.75;;;20.50;99.90;;;;;;6032270;23;20018;-72
2022/07/21 10:05:26;;;;;;;14.50;11.23;;;20.50;99.90;;;;;;6017335;23;20090;-72
2022/07/21 10:08:21;;;;;;;15.98;11.63;;;20.50;99.90;;;;;;6022949;23;20019;-72
2022/07/21 10:11:19;;;;;;;21.48;11.70;;;20.50;99.90;;;;;;6039666;23;20095;-73
2022/07/21 10:20:50;;;;;;;;;;;;;;;;;;;;;
2022/07/21 10:23:38;;;;;;;14.18;11.95;;;20.30;99.90;;;;;;6036397;23;20019;-73
2022/07/21 10:30:14;;;;;;;16.90;12.43;;;20.30;99.90;;;;;;6025020;23;20034;-72
2022/07/21 10:33:04;;;;;;;18.08;12.38;;;20.30;99.90;;;;;;6036726;23;20326;-72
2022/07/21 10:39:48;;;;;;;17.38;12.13;;;20.40;99.90;;;;;;5897788;24;20102;-81
2022/07/21 10:42:15;;;;;;;16.17;13.02;;;20.50;99.90;;;;;;6035743;23;20051;-77
2022/07/21 10:44:46;;;;;;;15.82;12.75;;;20.40;99.90;;;;;;6038757;23;20139;-80
2022/07/21 10:47:20;;;;;;;15.13;11.77;;;20.40;99.90;;;;;;6038817;23;20050;-80
2022/07/21 10:49:55;;;;;;;15.88;11.48;;;20.40;99.90;;;;;;6038204;23;20540;-75
2022/07/21 10:52:41;;;;;;;16.77;11.48;;;20.40;99.90;;;;;;6014455;23;20089;-76
2022/07/21 10:55:10;;;;;;;15.70;13.45;;;20.50;99.90;;;;;;6014557;23;20012;-76
2022/07/21 10:57:44;;;;;;;16.70;12.63;;;20.40;99.90;;;;;;6040797;23;20020;-76
2022/07/21 11:08:12;;;;;;;12.60;10.50;;;20.50;99.90;;;;;;5955698;24;20062;-72
2022/07/21 11:11:19;;;;;;;13.18;10.20;;;20.60;99.90;;;;;;5932589;24;20479;-73
2022/07/21 11:14:23;;;;;;;;;;;;;;;;;;;;;
2022/07/21 11:20:44;;;;;;;11.27;8.25;;;20.70;99.90;;;;;;6040932;23;20021;-71
2022/07/21 11:23:44;;;;;;;12.43;8.65;;;20.80;99.90;;;;;;6039953;23;20011;-76
2022/07/21 11:26:36;;;;;;;13.57;8.75;;;20.80;99.90;;;;;;6017618;23;20015;-75
2022/07/21 11:47:28;;;;;;;12.27;9.27;;;20.80;99.90;;;;;;5896578;24;20097;-80
2022/07/21 11:57:33;;;;;;;10.75;7.03;;;20.40;99.90;;;;;;5923531;24;20019;-78
2022/07/21 12:04:19;;;;;;;10.88;7.85;;;20.30;99.90;;;;;;6039531;23;20011;-79
2022/07/21 12:10:37;;;;;;;12.63;8.85;;;20.20;99.90;;;;;;6036067;23;20022;-75
2022/07/21 12:13:06;;;;;;;12.32;8.85;;;20.00;99.90;;;;;;6038084;23;20015;-70
2022/07/21 12:15:34;;;;;;;12.07;8.50;;;20.10;99.90;;;;;;6039319;23;20015;-70
2022/07/21 12:18:04;;;;;;;13.27;7.80;;;20.10;99.90;;;;;;6039717;23;20011;-70
2022/07/21 12:20:32;;;;;;;13.00;8.20;;;20.10;99.90;;;;;;6014360;23;20015;-70
2022/07/21 12:23:00;;;;;;;13.73;9.07;;;20.20;99.90;;;;;;6013721;23;20011;-70
2022/07/21 12:25:40;;;;;;;12.77;8.98;;;20.30;99.90;;;;;;6037496;23;20318;-70
2022/07/21 12:28:07;;;;;;;16.48;9.68;;;20.20;99.90;;;;;;6037768;23;20015;-70
2022/07/21 12:30:41;;;;;;;14.65;8.32;;;20.30;99.90;;;;;;6037741;23;20083;-74
2022/07/21 12:33:30;;;;;;;13.75;8.18;;;20.30;99.90;;;;;;6037552;23;20007;-75
2022/07/21 12:40:35;;;;;;;11.10;7.57;;;20.30;99.90;;;;;;6037410;23;20398;-72
2022/07/21 12:46:55;;;;;;;11.80;6.97;;;20.60;99.90;;;;;;6036308;23;20026;-71
2022/07/21 12:49:55;;;;;;;12.15;6.70;;;20.70;99.90;;;;;;6060134;23;20434;-72
2022/07/21 12:52:24;;;;;;;14.10;7.07;;;20.90;99.90;;;;;;6010960;23;20128;-71
2022/07/21 12:55:03;;;;;;;14.30;7.30;;;21.00;99.90;;;;;;5991353;23;20191;-74
2022/07/21 12:57:44;;;;;;;13.07;7.22;;;21.10;99.90;;;;;;6013235;23;20023;-78
2022/07/21 13:03:52;;;;;;;11.90;6.10;;;21.30;99.90;;;;;;6014694;23;20014;-67
2022/07/21 13:06:18;;;;;;;10.75;5.82;;;21.40;99.90;;;;;;6014891;23;20106;-68
2022/07/21 13:08:46;;;;;;;9.32;5.85;;;21.40;99.90;;;;;;6037367;23;20023;-69
2022/07/21 13:11:14;;;;;;;9.88;6.65;;;21.30;99.90;;;;;;6039101;23;20082;-67
2022/07/21 13:13:40;;;;;;;9.38;6.47;;;21.40;99.90;;;;;;6037210;23;20092;-69
2022/07/21 13:16:15;;;;;;;9.40;6.13;;;21.50;99.90;;;;;;6037534;23;20015;-73
2022/07/21 13:18:40;;;;;;;12.57;6.90;;;21.50;99.90;;;;;;6013536;23;20057;-68
2022/07/21 13:21:12;;;;;;;19.17;6.43;;;21.50;99.90;;;;;;6060653;23;20095;-72
2022/07/21 13:23:38;;;;;;;10.30;6.18;;;21.30;99.90;;;;;;6038332;23;20437;-68
2022/07/21 13:26:04;;;;;;;10.35;6.78;;;21.30;99.90;;;;;;6013233;23;20021;-69
2022/07/21 13:28:34;;;;;;;;;;;21.20;99.90;;;;;;6059665;23;20074;-70
2022/07/21 13:31:00;;;;;;;9.88;6.40;;;21.30;99.90;;;;;;6066348;23;19913;-70
2022/07/21 13:33:28;;;;;;;8.52;5.97;;;21.30;99.90;;;;;;6065715;23;20014;-68
2022/07/21 13:35:56;;;;;;;10.63;6.22;;;21.40;99.90;;;;;;6041832;23;20011;-68
2022/07/21 13:38:22;;;;;;;10.30;6.68;;;21.40;99.90;;;;;;6042029;23;20097;-69
2022/07/21 13:40:48;;;;;;;9.68;6.43;;;21.40;99.90;;;;;;6065407;23;20030;-69
2022/07/21 13:43:14;;;;;;;;;;;21.40;99.90;;;;;;6042079;23;20007;-69
2022/07/21 13:45:40;;;;;;;9.80;6.77;;;21.40;99.90;;;;;;6042128;23;19918;-68
2022/07/21 13:48:06;;;;;;;;;;;21.40;99.90;;;;;;6018684;23;20102;-69
2022/07/21 13:50:32;;;;;;;10.73;7.20;;;21.30;99.90;;;;;;6089994;23;19961;-69
2022/07/21 13:52:57;;;;;;;;;;;21.30;99.90;;;;;;6042239;23;20362;-69
2022/07/21 13:55:23;;;;;;;14.13;9.13;;;21.20;99.90;;;;;;6041721;23;19936;-71
2022/07/21 13:57:50;;;;;;;;;;;21.10;99.90;;;;;;6066384;23;20042;-67
2022/07/21 14:00:16;;;;;;;16.05;8.98;;;20.90;99.90;;;;;;6041925;23;19924;-68
2022/07/21 14:02:43;;;;;;;;;;;20.80;99.90;;;;;;6067665;23;20078;-67
2022/07/21 14:05:09;;;;;;;16.75;9.77;;;20.90;99.90;;;;;;6065802;23;19917;-68
2022/07/21 14:07:35;;;;;;;15.05;8.57;;;20.90;99.90;;;;;;6041704;23;20453;-68
2022/07/21 14:10:01;;;;;;;13.68;7.63;;;20.80;99.90;;;;;;5994856;23;20083;-68
2022/07/21 14:12:29;;;;;;;14.95;8.02;;;20.80;99.90;;;;;;6065278;23;20011;-71
2022/07/21 14:15:01;;;;;;;12.50;8.52;;;20.90;99.90;;;;;;6041708;23;20014;-74
2022/07/21 14:17:27;;;;;;;17.55;8.82;;;20.80;99.90;;;;;;6041236;23;20014;-69
2022/07/21 14:19:52;;;;;;;15.63;5.90;;;20.80;99.90;;;;;;6041929;23;20022;-67
2022/07/21 14:22:21;;;;;;;15.25;4.15;;;20.40;99.90;;;;;;6066583;23;20019;-70
2022/07/21 14:27:31;;;;;;;10.27;3.17;;;19.60;99.90;;;;;;6067062;23;20086;-70
2022/07/21 14:29:58;;;;;;;11.40;3.40;;;19.50;99.90;;;;;;6067207;23;20030;-69
2022/07/21 14:32:24;;;;;;;11.77;3.05;;;19.20;99.90;;;;;;6066313;23;20460;-69
2022/07/21 14:34:56;;;;;;;11.65;2.83;;;19.00;99.90;;;;;;6089075;23;20022;-68
2022/07/21 14:37:22;;;;;;;15.10;3.08;;;18.90;99.90;;;;;;6065559;23;20015;-68
2022/07/21 14:39:48;;;;;;;15.60;3.63;;;18.90;99.90;;;;;;6041632;23;20072;-68
2022/07/21 14:42:15;;;;;;;18.42;4.10;;;18.80;99.90;;;;;;6017431;23;20445;-68
2022/07/21 14:44:41;;;;;;;12.25;3.60;;;18.80;99.90;;;;;;6066599;23;20437;-68
2022/07/21 14:54:25;;;;;;;8.52;2.88;;;18.50;99.90;;;;;;5955438;24;20028;-68
2022/07/21 14:56:51;;;;;;;8.93;2.42;;;18.40;99.90;;;;;;5957017;24;20479;-67
2022/07/21 14:59:16;;;;;;;11.93;2.10;;;18.30;99.90;;;;;;6031113;23;20007;-67
2022/07/21 15:01:42;;;;;;;7.63;2.40;;;18.30;99.90;;;;;;6068383;23;20025;-68
2022/07/21 15:04:08;;;;;;;;;;;18.30;99.90;;;;;;6042944;23;20102;-68
2022/07/21 15:06:34;;;;;;;7.20;1.80;;;18.20;99.90;;;;;;6066540;23;19960;-68
2022/07/21 15:08:59;;;;;;;13.20;2.15;;;18.10;99.90;;;;;;6068139;23;20050;-68
2022/07/21 15:11:25;;;;;;;10.15;2.30;;;18.00;99.90;;;;;;6018711;23;20026;-66
2022/07/21 15:13:51;;;;;;;8.07;2.08;;;18.10;99.90;;;;;;6066212;23;20337;-67
2022/07/21 15:16:17;;;;;;;6.03;1.85;;;18.00;99.90;;;;;;6066377;23;20022;-66
2022/07/21 15:18:43;;;;;;;4.70;1.70;;;18.00;99.90;;;;;;6042655;23;20007;-65
2022/07/21 15:21:09;;;;;;;13.15;2.22;;;17.90;99.90;;;;;;6067916;23;20379;-70
2022/07/21 15:23:38;;;;;;;6.38;1.92;;;17.90;99.90;;;;;;6019409;23;20025;-67
2022/07/21 15:26:03;;;;;;;6.82;1.90;;;17.80;99.90;;;;;;6068143;23;20014;-67
2022/07/21 15:28:29;;;;;;;10.02;1.65;;;17.80;99.90;;;;;;6042566;23;20313;-66
2022/07/21 15:30:55;;;;;;;8.98;1.95;;;17.80;99.90;;;;;;6018905;23;20050;-67
2022/07/21 15:33:20;;;;;;;12.05;1.95;;;17.70;99.90;;;;;;6068738;23;20429;-67
2022/07/21 15:35:46;;;;;;;7.65;1.73;;;17.70;99.90;;;;;;6042836;23;20014;-66
2022/07/21 15:38:12;;;;;;;9.40;1.67;;;17.60;99.90;;;;;;6068040;23;20018;-66
2022/07/21 15:40:38;;;;;;;5.97;1.98;;;17.60;99.90;;;;;;6042880;23;20010;-67
2022/07/21 15:43:03;;;;;;;8.23;1.92;;;17.50;99.90;;;;;;6066843;23;20058;-69
2022/07/21 15:45:30;;;;;;;10.07;2.53;;;17.50;99.90;;;;;;6092330;23;20445;-70
2022/07/21 15:48:11;;;;;;;8.98;1.88;;;17.40;99.90;;;;;;6044371;23;20018;-72
2022/07/21 15:51:08;;;;;;;6.22;1.67;;;17.40;99.90;;;;;;6018925;23;20020;-72
2022/07/21 15:53:36;;;;;;;11.38;1.75;;;17.30;99.90;;;;;;6067474;23;20010;-73
2022/07/21 15:56:12;;;;;;;8.35;2.25;;;17.30;99.90;;;;;;6043696;23;20019;-74